sensor_id;sensor_type;location;lat;lon;timestamp;pressure;altitude;pressure_sealevel;temperature;humidity
70468;BME280;57934;51.532;7.684;2023-08-20T00:01:48;100842.28;;;20.48;96.21
70468;BME280;57934;51.532;7.684;2023-08-20T00:04:18;100837.06;;;20.54;96.05
70468;BME280;57934;51.532;7.684;2023-08-20T00:06:45;100836.28;;;20.41;96.38
70468;BME280;57934;51.532;7.684;2023-08-20T00:09:12;100838.66;;;20.38;96.22
70468;BME280;57934;51.532;7.684;2023-08-20T00:11:38;100838.47;;;20.27;96.53
70468;BME280;57934;51.532;7.684;2023-08-20T00:14:04;100837.69;;;20.27;96.63
70468;BME280;57934;51.532;7.684;2023-08-20T00:16:30;100833.72;;;20.30;96.50
70468;BME280;57934;51.532;7.684;2023-08-20T00:18:57;100835.75;;;20.22;96.69
70468;BME280;57934;51.532;7.684;2023-08-20T00:21:23;100839.44;;;20.21;96.78
70468;BME280;57934;51.532;7.684;2023-08-20T00:23:50;100848.06;;;20.23;96.96
70468;BME280;57934;51.532;7.684;2023-08-20T00:26:16;100839.63;;;20.32;96.46
70468;BME280;57934;51.532;7.684;2023-08-20T00:28:42;100845.97;;;20.25;96.61
70468;BME280;57934;51.532;7.684;2023-08-20T00:31:08;100838.00;;;20.14;96.74
70468;BME280;57934;51.532;7.684;2023-08-20T00:33:34;100845.53;;;20.17;96.99
70468;BME280;57934;51.532;7.684;2023-08-20T00:36:00;100858.94;;;20.17;96.83
70468;BME280;57934;51.532;7.684;2023-08-20T00:38:26;100862.75;;;20.21;96.42
70468;BME280;57934;51.532;7.684;2023-08-20T00:40:53;100851.81;;;20.22;96.55
70468;BME280;57934;51.532;7.684;2023-08-20T00:43:20;100849.34;;;20.21;96.52
70468;BME280;57934;51.532;7.684;2023-08-20T00:45:46;100858.44;;;20.20;96.53
70468;BME280;57934;51.532;7.684;2023-08-20T00:48:13;100859.50;;;20.19;96.54
70468;BME280;57934;51.532;7.684;2023-08-20T00:50:39;100854.22;;;20.07;96.63
70468;BME280;57934;51.532;7.684;2023-08-20T00:53:08;100869.88;;;19.98;97.38
70468;BME280;57934;51.532;7.684;2023-08-20T00:55:36;100860.78;;;19.99;97.57
70468;BME280;57934;51.532;7.684;2023-08-20T00:58:02;100851.28;;;19.92;98.02
70468;BME280;57934;51.532;7.684;2023-08-20T01:00:29;100854.53;;;19.94;97.69
70468;BME280;57934;51.532;7.684;2023-08-20T01:02:55;100861.38;;;20.01;97.68
70468;BME280;57934;51.532;7.684;2023-08-20T01:05:23;100854.31;;;20.12;97.36
70468;BME280;57934;51.532;7.684;2023-08-20T01:10:49;100835.84;;;19.82;98.76
70468;BME280;57934;51.532;7.684;2023-08-20T01:13:19;100840.31;;;19.76;98.86
70468;BME280;57934;51.532;7.684;2023-08-20T01:15:46;100831.78;;;19.63;99.93
70468;BME280;57934;51.532;7.684;2023-08-20T01:18:12;100825.00;;;19.60;100.00
70468;BME280;57934;51.532;7.684;2023-08-20T01:20:52;100818.84;;;19.60;100.00
70468;BME280;57934;51.532;7.684;2023-08-20T01:28:59;100817.66;;;19.67;100.00
70468;BME280;57934;51.532;7.684;2023-08-20T01:31:25;100825.78;;;19.72;100.00
70468;BME280;57934;51.532;7.684;2023-08-20T01:33:52;100820.19;;;19.74;100.00
70468;BME280;57934;51.532;7.684;2023-08-20T01:36:21;100812.06;;;19.69;100.00
70468;BME280;57934;51.532;7.684;2023-08-20T01:38:47;100814.59;;;19.75;100.00
70468;BME280;57934;51.532;7.684;2023-08-20T01:41:14;100821.91;;;19.80;100.00
70468;BME280;57934;51.532;7.684;2023-08-20T01:43:40;100825.81;;;19.89;100.00
70468;BME280;57934;51.532;7.684;2023-08-20T01:46:07;100821.50;;;19.88;100.00
70468;BME280;57934;51.532;7.684;2023-08-20T01:48:35;100815.81;;;19.85;100.00
70468;BME280;57934;51.532;7.684;2023-08-20T01:51:01;100819.75;;;19.94;99.96
70468;BME280;57934;51.532;7.684;2023-08-20T01:53:28;100819.56;;;19.84;100.00
70468;BME280;57934;51.532;7.684;2023-08-20T01:55:54;100824.00;;;19.78;100.00
70468;BME280;57934;51.532;7.684;2023-08-20T01:58:20;100829.84;;;19.75;100.00
70468;BME280;57934;51.532;7.684;2023-08-20T02:00:46;100837.97;;;19.80;100.00
70468;BME280;57934;51.532;7.684;2023-08-20T02:03:13;100838.34;;;19.72;100.00
70468;BME280;57934;51.532;7.684;2023-08-20T02:05:39;100845.91;;;19.75;100.00
70468;BME280;57934;51.532;7.684;2023-08-20T02:08:08;100851.34;;;19.80;100.00
70468;BME280;57934;51.532;7.684;2023-08-20T02:10:36;100859.47;;;19.85;100.00
70468;BME280;57934;51.532;7.684;2023-08-20T02:13:04;100860.22;;;19.97;100.00
70468;BME280;57934;51.532;7.684;2023-08-20T02:15:31;100847.06;;;19.96;100.00
70468;BME280;57934;51.532;7.684;2023-08-20T02:17:57;100849.75;;;19.96;100.00
70468;BME280;57934;51.532;7.684;2023-08-20T02:20:23;100838.06;;;20.02;100.00
70468;BME280;57934;51.532;7.684;2023-08-20T02:22:49;100840.75;;;20.02;100.00
70468;BME280;57934;51.532;7.684;2023-08-20T02:25:15;100838.22;;;19.95;100.00
70468;BME280;57934;51.532;7.684;2023-08-20T02:27:42;100842.84;;;20.00;100.00
70468;BME280;57934;51.532;7.684;2023-08-20T02:30:11;100841.56;;;20.02;100.00
70468;BME280;57934;51.532;7.684;2023-08-20T02:32:39;100843.31;;;19.97;100.00
70468;BME280;57934;51.532;7.684;2023-08-20T02:35:05;100841.63;;;19.91;100.00
70468;BME280;57934;51.532;7.684;2023-08-20T02:37:32;100836.81;;;19.76;100.00
70468;BME280;57934;51.532;7.684;2023-08-20T02:39:58;100836.59;;;19.77;100.00
70468;BME280;57934;51.532;7.684;2023-08-20T02:42:24;100835.91;;;19.70;100.00
70468;BME280;57934;51.532;7.684;2023-08-20T02:44:50;100832.91;;;19.67;100.00
70468;BME280;57934;51.532;7.684;2023-08-20T02:47:17;100834.19;;;19.64;100.00
70468;BME280;57934;51.532;7.684;2023-08-20T02:49:43;100837.13;;;19.63;100.00
70468;BME280;57934;51.532;7.684;2023-08-20T02:52:11;100845.47;;;19.66;100.00
70468;BME280;57934;51.532;7.684;2023-08-20T02:54:37;100850.59;;;19.68;100.00
70468;BME280;57934;51.532;7.684;2023-08-20T02:57:03;100853.50;;;19.66;100.00
70468;BME280;57934;51.532;7.684;2023-08-20T02:59:29;100854.53;;;19.65;100.00
70468;BME280;57934;51.532;7.684;2023-08-20T03:01:55;100861.28;;;19.68;100.00
70468;BME280;57934;51.532;7.684;2023-08-20T03:04:21;100868.25;;;19.69;100.00
70468;BME280;57934;51.532;7.684;2023-08-20T03:06:47;100876.94;;;19.76;100.00
70468;BME280;57934;51.532;7.684;2023-08-20T03:09:14;100877.28;;;19.79;100.00
70468;BME280;57934;51.532;7.684;2023-08-20T03:11:40;100871.56;;;19.88;100.00
70468;BME280;57934;51.532;7.684;2023-08-20T03:14:06;100884.47;;;19.91;100.00
70468;BME280;57934;51.532;7.684;2023-08-20T03:16:32;100890.63;;;19.91;100.00
70468;BME280;57934;51.532;7.684;2023-08-20T03:18:58;100895.50;;;19.94;100.00
70468;BME280;57934;51.532;7.684;2023-08-20T03:21:24;100900.47;;;20.02;100.00
70468;BME280;57934;51.532;7.684;2023-08-20T03:23:51;100889.50;;;20.04;100.00
70468;BME280;57934;51.532;7.684;2023-08-20T03:26:17;100891.47;;;20.09;100.00
70468;BME280;57934;51.532;7.684;2023-08-20T03:28:43;100873.69;;;20.02;100.00
70468;BME280;57934;51.532;7.684;2023-08-20T03:31:09;100872.88;;;20.02;100.00
70468;BME280;57934;51.532;7.684;2023-08-20T03:33:39;100881.72;;;20.02;100.00
70468;BME280;57934;51.532;7.684;2023-08-20T03:36:06;100877.03;;;20.10;100.00
70468;BME280;57934;51.532;7.684;2023-08-20T03:38:32;100881.66;;;20.14;100.00
70468;BME280;57934;51.532;7.684;2023-08-20T03:40:58;100882.72;;;20.13;100.00
70468;BME280;57934;51.532;7.684;2023-08-20T03:43:25;100894.47;;;20.12;100.00
70468;BME280;57934;51.532;7.684;2023-08-20T03:45:52;100887.00;;;20.14;100.00
70468;BME280;57934;51.532;7.684;2023-08-20T03:48:18;100882.22;;;20.16;100.00
70468;BME280;57934;51.532;7.684;2023-08-20T03:50:44;100875.97;;;20.11;100.00
70468;BME280;57934;51.532;7.684;2023-08-20T03:53:11;100873.38;;;20.16;100.00
70468;BME280;57934;51.532;7.684;2023-08-20T03:55:37;100878.16;;;20.14;100.00
70468;BME280;57934;51.532;7.684;2023-08-20T03:58:03;100879.69;;;20.10;100.00
70468;BME280;57934;51.532;7.684;2023-08-20T04:00:29;100875.63;;;20.07;100.00
70468;BME280;57934;51.532;7.684;2023-08-20T04:02:55;100888.00;;;20.08;100.00
70468;BME280;57934;51.532;7.684;2023-08-20T04:05:21;100893.56;;;20.07;100.00
70468;BME280;57934;51.532;7.684;2023-08-20T04:07:47;100901.91;;;19.93;100.00
70468;BME280;57934;51.532;7.684;2023-08-20T04:10:13;100898.19;;;19.94;100.00
70468;BME280;57934;51.532;7.684;2023-08-20T04:12:40;100898.88;;;19.90;100.00
70468;BME280;57934;51.532;7.684;2023-08-20T04:15:07;100901.00;;;19.88;100.00
70468;BME280;57934;51.532;7.684;2023-08-20T04:17:34;100912.38;;;19.95;100.00
70468;BME280;57934;51.532;7.684;2023-08-20T04:20:00;100908.97;;;19.99;100.00
70468;BME280;57934;51.532;7.684;2023-08-20T04:22:27;100911.19;;;20.02;100.00
70468;BME280;57934;51.532;7.684;2023-08-20T04:24:56;100916.84;;;20.06;100.00
70468;BME280;57934;51.532;7.684;2023-08-20T04:27:22;100912.41;;;20.12;100.00
70468;BME280;57934;51.532;7.684;2023-08-20T04:29:48;100916.59;;;20.08;100.00
70468;BME280;57934;51.532;7.684;2023-08-20T04:32:14;100919.06;;;20.09;100.00
70468;BME280;57934;51.532;7.684;2023-08-20T04:34:40;100923.94;;;20.12;100.00
70468;BME280;57934;51.532;7.684;2023-08-20T04:37:07;100908.44;;;20.14;100.00
70468;BME280;57934;51.532;7.684;2023-08-20T04:39:33;100921.59;;;20.16;100.00
70468;BME280;57934;51.532;7.684;2023-08-20T04:41:59;100920.84;;;20.20;100.00
70468;BME280;57934;51.532;7.684;2023-08-20T04:44:26;100910.63;;;20.17;100.00
70468;BME280;57934;51.532;7.684;2023-08-20T04:46:55;100916.47;;;20.14;100.00
70468;BME280;57934;51.532;7.684;2023-08-20T04:49:22;100916.09;;;20.22;100.00
70468;BME280;57934;51.532;7.684;2023-08-20T04:51:48;100915.75;;;20.19;100.00
70468;BME280;57934;51.532;7.684;2023-08-20T04:54:14;100910.69;;;20.06;100.00
70468;BME280;57934;51.532;7.684;2023-08-20T04:56:40;100924.41;;;20.09;100.00
70468;BME280;57934;51.532;7.684;2023-08-20T04:59:06;100923.13;;;20.12;100.00
70468;BME280;57934;51.532;7.684;2023-08-20T05:02:04;100916.78;;;20.18;100.00
70468;BME280;57934;51.532;7.684;2023-08-20T05:04:40;100915.59;;;20.25;100.00
70468;BME280;57934;51.532;7.684;2023-08-20T05:07:06;100916.00;;;20.34;100.00
70468;BME280;57934;51.532;7.684;2023-08-20T05:09:32;100916.34;;;20.38;100.00
70468;BME280;57934;51.532;7.684;2023-08-20T05:11:58;100918.69;;;20.34;100.00
70468;BME280;57934;51.532;7.684;2023-08-20T05:14:25;100917.41;;;20.37;100.00
70468;BME280;57934;51.532;7.684;2023-08-20T05:16:51;100913.59;;;20.33;100.00
70468;BME280;57934;51.532;7.684;2023-08-20T05:19:17;100922.66;;;20.32;100.00
70468;BME280;57934;51.532;7.684;2023-08-20T05:21:43;100932.63;;;20.19;100.00
70468;BME280;57934;51.532;7.684;2023-08-20T05:24:09;100930.00;;;20.08;100.00
70468;BME280;57934;51.532;7.684;2023-08-20T05:26:35;100921.66;;;20.21;100.00
70468;BME280;57934;51.532;7.684;2023-08-20T05:29:01;100916.34;;;20.38;100.00
70468;BME280;57934;51.532;7.684;2023-08-20T05:31:27;100915.75;;;20.36;100.00
70468;BME280;57934;51.532;7.684;2023-08-20T05:33:54;100924.16;;;20.39;100.00
70468;BME280;57934;51.532;7.684;2023-08-20T05:36:21;100921.97;;;20.70;100.00
70468;BME280;57934;51.532;7.684;2023-08-20T05:38:47;100924.41;;;20.71;100.00
70468;BME280;57934;51.532;7.684;2023-08-20T05:41:13;100926.19;;;20.66;100.00
70468;BME280;57934;51.532;7.684;2023-08-20T05:43:39;100938.22;;;20.63;100.00
70468;BME280;57934;51.532;7.684;2023-08-20T05:46:06;100932.00;;;20.46;100.00
70468;BME280;57934;51.532;7.684;2023-08-20T05:48:32;100928.16;;;20.54;100.00
70468;BME280;57934;51.532;7.684;2023-08-20T05:50:58;100936.75;;;20.56;100.00
70468;BME280;57934;51.532;7.684;2023-08-20T05:53:24;100932.25;;;20.44;100.00
70468;BME280;57934;51.532;7.684;2023-08-20T05:55:51;100927.28;;;20.19;100.00
70468;BME280;57934;51.532;7.684;2023-08-20T05:58:17;100929.31;;;20.29;100.00
70468;BME280;57934;51.532;7.684;2023-08-20T06:00:43;100932.31;;;20.49;100.00
70468;BME280;57934;51.532;7.684;2023-08-20T06:03:09;100937.25;;;20.69;100.00
70468;BME280;57934;51.532;7.684;2023-08-20T06:05:35;100938.03;;;20.36;100.00
70468;BME280;57934;51.532;7.684;2023-08-20T06:08:01;100936.44;;;20.52;100.00
70468;BME280;57934;51.532;7.684;2023-08-20T06:10:27;100933.69;;;20.35;100.00
70468;BME280;57934;51.532;7.684;2023-08-20T06:12:54;100934.34;;;20.25;100.00
70468;BME280;57934;51.532;7.684;2023-08-20T06:15:20;100928.81;;;20.32;100.00
70468;BME280;57934;51.532;7.684;2023-08-20T06:17:46;100942.44;;;20.59;100.00
70468;BME280;57934;51.532;7.684;2023-08-20T06:20:12;100943.72;;;20.73;100.00
70468;BME280;57934;51.532;7.684;2023-08-20T06:22:38;100935.19;;;20.93;100.00
70468;BME280;57934;51.532;7.684;2023-08-20T06:25:05;100939.81;;;20.98;100.00
70468;BME280;57934;51.532;7.684;2023-08-20T06:27:31;100940.53;;;21.10;100.00
70468;BME280;57934;51.532;7.684;2023-08-20T06:29:57;100935.63;;;21.24;100.00
70468;BME280;57934;51.532;7.684;2023-08-20T06:32:23;100942.41;;;21.10;100.00
70468;BME280;57934;51.532;7.684;2023-08-20T06:34:50;100934.06;;;21.28;100.00
70468;BME280;57934;51.532;7.684;2023-08-20T06:37:16;100938.13;;;21.31;100.00
70468;BME280;57934;51.532;7.684;2023-08-20T06:39:42;100941.72;;;21.58;100.00
70468;BME280;57934;51.532;7.684;2023-08-20T06:42:08;100947.28;;;21.74;99.69
70468;BME280;57934;51.532;7.684;2023-08-20T06:44:34;100939.19;;;21.96;99.05
70468;BME280;57934;51.532;7.684;2023-08-20T06:47:01;100944.84;;;22.21;98.30
70468;BME280;57934;51.532;7.684;2023-08-20T06:49:27;100947.78;;;22.47;97.08
70468;BME280;57934;51.532;7.684;2023-08-20T06:51:54;100941.13;;;22.59;95.45
70468;BME280;57934;51.532;7.684;2023-08-20T06:54:21;100943.41;;;22.73;94.70
70468;BME280;57934;51.532;7.684;2023-08-20T06:56:47;100943.97;;;22.80;93.16
70468;BME280;57934;51.532;7.684;2023-08-20T06:59:13;100951.47;;;22.78;92.67
70468;BME280;57934;51.532;7.684;2023-08-20T07:01:39;100951.47;;;22.73;91.77
70468;BME280;57934;51.532;7.684;2023-08-20T07:04:05;100947.63;;;22.63;91.93
70468;BME280;57934;51.532;7.684;2023-08-20T07:06:32;100950.16;;;22.80;91.25
70468;BME280;57934;51.532;7.684;2023-08-20T07:08:58;100951.97;;;22.70;92.00
70468;BME280;57934;51.532;7.684;2023-08-20T07:11:24;100951.38;;;22.95;91.37
70468;BME280;57934;51.532;7.684;2023-08-20T07:13:50;100960.88;;;23.07;90.71
70468;BME280;57934;51.532;7.684;2023-08-20T07:16:16;100955.50;;;23.13;89.62
70468;BME280;57934;51.532;7.684;2023-08-20T07:18:42;100958.91;;;23.40;89.11
70468;BME280;57934;51.532;7.684;2023-08-20T07:21:09;100961.63;;;23.45;87.69
70468;BME280;57934;51.532;7.684;2023-08-20T07:23:35;100963.84;;;23.64;87.55
70468;BME280;57934;51.532;7.684;2023-08-20T07:26:06;100965.53;;;23.75;86.40
70468;BME280;57934;51.532;7.684;2023-08-20T07:28:32;100962.06;;;23.90;86.11
70468;BME280;57934;51.532;7.684;2023-08-20T07:31:17;100960.53;;;24.29;85.04
70468;BME280;57934;51.532;7.684;2023-08-20T07:33:47;100958.97;;;24.64;83.19
70468;BME280;57934;51.532;7.684;2023-08-20T07:36:14;100957.88;;;24.60;82.39
70468;BME280;57934;51.532;7.684;2023-08-20T07:38:41;100957.34;;;24.68;81.83
70468;BME280;57934;51.532;7.684;2023-08-20T07:41:11;100946.81;;;24.82;81.18
70468;BME280;57934;51.532;7.684;2023-08-20T07:43:38;100940.84;;;24.90;80.67
70468;BME280;57934;51.532;7.684;2023-08-20T07:46:05;100933.84;;;24.84;80.72
70468;BME280;57934;51.532;7.684;2023-08-20T07:48:34;100937.31;;;24.95;80.72
70468;BME280;57934;51.532;7.684;2023-08-20T07:51:02;100930.03;;;25.21;79.48
70468;BME280;57934;51.532;7.684;2023-08-20T07:53:29;100933.25;;;25.18;78.86
70468;BME280;57934;51.532;7.684;2023-08-20T07:55:56;100942.16;;;25.18;79.77
70468;BME280;57934;51.532;7.684;2023-08-20T07:58:22;100939.09;;;25.45;77.77
70468;BME280;57934;51.532;7.684;2023-08-20T08:00:48;100942.47;;;25.82;76.68
70468;BME280;57934;51.532;7.684;2023-08-20T08:03:14;100939.75;;;26.26;76.09
70468;BME280;57934;51.532;7.684;2023-08-20T08:05:41;100946.53;;;26.87;73.75
70468;BME280;57934;51.532;7.684;2023-08-20T08:08:07;100948.03;;;27.27;71.50
70468;BME280;57934;51.532;7.684;2023-08-20T08:10:33;100952.28;;;26.46;71.83
70468;BME280;57934;51.532;7.684;2023-08-20T08:12:59;100943.56;;;27.60;69.72
70468;BME280;57934;51.532;7.684;2023-08-20T08:15:25;100951.00;;;27.50;66.03
70468;BME280;57934;51.532;7.684;2023-08-20T08:17:51;100950.31;;;26.62;68.94
70468;BME280;57934;51.532;7.684;2023-08-20T08:20:17;100958.66;;;27.91;65.67
70468;BME280;57934;51.532;7.684;2023-08-20T08:22:43;100958.84;;;27.94;64.77
70468;BME280;57934;51.532;7.684;2023-08-20T08:25:09;100958.44;;;29.18;61.73
70468;BME280;57934;51.532;7.684;2023-08-20T08:27:36;100959.78;;;29.98;58.15
70468;BME280;57934;51.532;7.684;2023-08-20T08:30:03;100956.53;;;29.60;60.23
70468;BME280;57934;51.532;7.684;2023-08-20T08:32:29;100959.19;;;30.24;58.51
70468;BME280;57934;51.532;7.684;2023-08-20T08:34:55;100956.81;;;31.64;54.63
70468;BME280;57934;51.532;7.684;2023-08-20T08:37:21;100957.63;;;31.56;52.42
70468;BME280;57934;51.532;7.684;2023-08-20T08:39:48;100956.63;;;31.43;53.39
70468;BME280;57934;51.532;7.684;2023-08-20T08:42:14;100962.72;;;31.00;54.18
70468;BME280;57934;51.532;7.684;2023-08-20T08:44:43;100958.22;;;31.44;53.44
70468;BME280;57934;51.532;7.684;2023-08-20T08:47:10;100961.66;;;32.37;52.21
70468;BME280;57934;51.532;7.684;2023-08-20T08:49:37;100958.00;;;32.97;50.76
70468;BME280;57934;51.532;7.684;2023-08-20T08:52:04;100949.34;;;33.96;48.82
70468;BME280;57934;51.532;7.684;2023-08-20T08:54:32;100952.94;;;34.51;46.40
70468;BME280;57934;51.532;7.684;2023-08-20T08:56:59;100951.50;;;35.39;45.00
70468;BME280;57934;51.532;7.684;2023-08-20T08:59:25;100950.09;;;36.10;42.71
70468;BME280;57934;51.532;7.684;2023-08-20T09:01:51;100953.59;;;35.18;41.04
70468;BME280;57934;51.532;7.684;2023-08-20T09:04:17;100949.84;;;34.64;41.22
70468;BME280;57934;51.532;7.684;2023-08-20T09:06:51;100948.63;;;34.41;41.38
70468;BME280;57934;51.532;7.684;2023-08-20T09:09:18;100947.50;;;34.75;42.30
70468;BME280;57934;51.532;7.684;2023-08-20T09:11:45;100953.91;;;35.53;39.96
70468;BME280;57934;51.532;7.684;2023-08-20T09:14:27;100956.19;;;34.89;41.16
70468;BME280;57934;51.532;7.684;2023-08-20T09:17:02;100949.53;;;36.04;39.55
70468;BME280;57934;51.532;7.684;2023-08-20T09:19:29;100952.84;;;35.98;38.77
70468;BME280;57934;51.532;7.684;2023-08-20T09:21:58;100949.78;;;36.43;38.40
70468;BME280;57934;51.532;7.684;2023-08-20T09:24:41;100951.63;;;37.15;37.00
70468;BME280;57934;51.532;7.684;2023-08-20T09:27:12;100951.00;;;37.41;37.43
70468;BME280;57934;51.532;7.684;2023-08-20T09:29:53;100947.63;;;38.02;36.08
70468;BME280;57934;51.532;7.684;2023-08-20T09:32:24;100943.25;;;37.82;36.13
70468;BME280;57934;51.532;7.684;2023-08-20T09:34:52;100943.72;;;36.66;37.64
70468;BME280;57934;51.532;7.684;2023-08-20T09:37:21;100944.06;;;36.80;37.69
70468;BME280;57934;51.532;7.684;2023-08-20T09:39:47;100942.66;;;37.02;37.41
70468;BME280;57934;51.532;7.684;2023-08-20T09:42:14;100947.63;;;38.02;36.46
70468;BME280;57934;51.532;7.684;2023-08-20T09:44:44;100947.91;;;38.82;35.28
70468;BME280;57934;51.532;7.684;2023-08-20T09:47:12;100950.53;;;38.09;35.07
70468;BME280;57934;51.532;7.684;2023-08-20T09:49:39;100944.34;;;38.16;34.75
70468;BME280;57934;51.532;7.684;2023-08-20T09:52:08;100949.78;;;38.78;34.29
70468;BME280;57934;51.532;7.684;2023-08-20T09:54:44;100949.88;;;39.34;33.98
70468;BME280;57934;51.532;7.684;2023-08-20T09:57:20;100949.75;;;38.32;33.76
70468;BME280;57934;51.532;7.684;2023-08-20T09:59:48;100951.22;;;37.32;35.40
70468;BME280;57934;51.532;7.684;2023-08-20T10:02:15;100954.22;;;35.64;37.64
70468;BME280;57934;51.532;7.684;2023-08-20T10:04:43;100953.31;;;34.07;41.50
70468;BME280;57934;51.532;7.684;2023-08-20T10:07:10;100954.22;;;32.63;43.68
70468;BME280;57934;51.532;7.684;2023-08-20T10:09:39;100950.56;;;31.64;45.80
70468;BME280;57934;51.532;7.684;2023-08-20T10:12:06;100960.25;;;31.30;47.64
70468;BME280;57934;51.532;7.684;2023-08-20T10:14:32;100952.59;;;30.70;48.29
70468;BME280;57934;51.532;7.684;2023-08-20T10:16:59;100953.38;;;29.80;50.26
70468;BME280;57934;51.532;7.684;2023-08-20T10:19:31;100956.81;;;29.44;51.92
70468;BME280;57934;51.532;7.684;2023-08-20T10:21:57;100949.59;;;29.12;52.34
70468;BME280;57934;51.532;7.684;2023-08-20T10:24:23;100948.59;;;29.36;52.11
70468;BME280;57934;51.532;7.684;2023-08-20T10:27:07;100947.16;;;31.01;50.03
70468;BME280;57934;51.532;7.684;2023-08-20T10:32:05;100947.88;;;33.27;43.30
70468;BME280;57934;51.532;7.684;2023-08-20T10:34:36;100941.84;;;34.59;40.00
70468;BME280;57934;51.532;7.684;2023-08-20T10:37:25;100948.84;;;34.36;40.08
70468;BME280;57934;51.532;7.684;2023-08-20T10:39:55;100951.78;;;32.79;41.64
70468;BME280;57934;51.532;7.684;2023-08-20T10:42:25;100953.59;;;32.66;43.49
70468;BME280;57934;51.532;7.684;2023-08-20T10:45:05;100959.41;;;32.56;44.61
70468;BME280;57934;51.532;7.684;2023-08-20T10:47:44;100952.19;;;31.82;44.82
70468;BME280;57934;51.532;7.684;2023-08-20T10:50:12;100952.19;;;32.25;45.36
70468;BME280;57934;51.532;7.684;2023-08-20T10:52:41;100953.78;;;34.09;42.30
70468;BME280;57934;51.532;7.684;2023-08-20T10:55:13;100956.31;;;35.42;40.10
70468;BME280;57934;51.532;7.684;2023-08-20T10:57:41;100950.72;;;36.95;37.45
70468;BME280;57934;51.532;7.684;2023-08-20T11:00:08;100956.16;;;36.75;37.45
70468;BME280;57934;51.532;7.684;2023-08-20T11:02:41;100956.06;;;34.86;39.65
70468;BME280;57934;51.532;7.684;2023-08-20T11:05:18;100958.34;;;32.87;42.83
70468;BME280;57934;51.532;7.684;2023-08-20T11:07:48;100960.41;;;31.25;46.91
70468;BME280;57934;51.532;7.684;2023-08-20T11:10:15;100953.88;;;30.41;49.04
70468;BME280;57934;51.532;7.684;2023-08-20T11:12:43;100953.63;;;29.92;51.10
70468;BME280;57934;51.532;7.684;2023-08-20T11:15:10;100946.41;;;29.88;51.72
70468;BME280;57934;51.532;7.684;2023-08-20T11:17:45;100950.25;;;30.09;51.18
70468;BME280;57934;51.532;7.684;2023-08-20T11:20:13;100942.06;;;30.23;50.76
70468;BME280;57934;51.532;7.684;2023-08-20T11:22:40;100952.28;;;30.40;50.48
70468;BME280;57934;51.532;7.684;2023-08-20T11:25:11;100943.56;;;30.60;49.95
70468;BME280;57934;51.532;7.684;2023-08-20T11:27:42;100951.28;;;30.67;49.68
70468;BME280;57934;51.532;7.684;2023-08-20T11:30:11;100947.19;;;31.58;48.59
70468;BME280;57934;51.532;7.684;2023-08-20T11:32:39;100943.75;;;32.83;45.01
70468;BME280;57934;51.532;7.684;2023-08-20T11:35:07;100938.41;;;34.17;41.82
70468;BME280;57934;51.532;7.684;2023-08-20T11:37:34;100939.88;;;35.18;39.28
70468;BME280;57934;51.532;7.684;2023-08-20T11:40:00;100943.38;;;35.55;38.55
70468;BME280;57934;51.532;7.684;2023-08-20T11:42:26;100938.69;;;35.43;38.61
70468;BME280;57934;51.532;7.684;2023-08-20T11:44:55;100934.84;;;34.50;40.74
70468;BME280;57934;51.532;7.684;2023-08-20T11:47:21;100945.16;;;34.19;42.18
70468;BME280;57934;51.532;7.684;2023-08-20T11:49:47;100948.28;;;34.88;40.85
70468;BME280;57934;51.532;7.684;2023-08-20T11:52:13;100947.81;;;35.47;40.11
70468;BME280;57934;51.532;7.684;2023-08-20T11:54:41;100939.72;;;35.63;38.66
70468;BME280;57934;51.532;7.684;2023-08-20T11:57:07;100937.88;;;36.23;37.98
70468;BME280;57934;51.532;7.684;2023-08-20T11:59:34;100934.63;;;36.34;36.71
70468;BME280;57934;51.532;7.684;2023-08-20T12:02:02;100932.69;;;37.64;36.04
70468;BME280;57934;51.532;7.684;2023-08-20T12:04:31;100929.47;;;38.20;34.28
70468;BME280;57934;51.532;7.684;2023-08-20T12:07:05;100929.63;;;37.89;34.63
70468;BME280;57934;51.532;7.684;2023-08-20T12:09:32;100936.00;;;36.87;35.21
70468;BME280;57934;51.532;7.684;2023-08-20T12:11:59;100931.91;;;37.13;35.18
70468;BME280;57934;51.532;7.684;2023-08-20T12:14:25;100936.78;;;36.40;36.66
70468;BME280;57934;51.532;7.684;2023-08-20T12:16:53;100929.22;;;35.28;38.92
70468;BME280;57934;51.532;7.684;2023-08-20T12:19:20;100924.97;;;34.24;41.07
70468;BME280;57934;51.532;7.684;2023-08-20T12:21:46;100923.31;;;32.80;44.75
70468;BME280;57934;51.532;7.684;2023-08-20T12:24:12;100917.13;;;32.62;44.36
70468;BME280;57934;51.532;7.684;2023-08-20T12:26:39;100915.78;;;31.87;44.96
70468;BME280;57934;51.532;7.684;2023-08-20T12:29:06;100903.56;;;30.38;48.22
70468;BME280;57934;51.532;7.684;2023-08-20T12:31:32;100924.41;;;29.98;50.65
70468;BME280;57934;51.532;7.684;2023-08-20T12:33:59;100917.28;;;30.11;50.41
70468;BME280;57934;51.532;7.684;2023-08-20T12:36:25;100919.59;;;30.17;49.97
70468;BME280;57934;51.532;7.684;2023-08-20T12:38:51;100918.44;;;29.74;50.35
70468;BME280;57934;51.532;7.684;2023-08-20T12:41:19;100918.31;;;29.79;51.23
70468;BME280;57934;51.532;7.684;2023-08-20T12:43:45;100909.84;;;29.16;51.36
70468;BME280;57934;51.532;7.684;2023-08-20T12:46:11;100908.50;;;28.86;53.24
70468;BME280;57934;51.532;7.684;2023-08-20T12:48:38;100905.91;;;29.22;52.16
70468;BME280;57934;51.532;7.684;2023-08-20T12:51:05;100904.09;;;29.59;51.89
70468;BME280;57934;51.532;7.684;2023-08-20T12:53:31;100908.31;;;29.88;51.94
70468;BME280;57934;51.532;7.684;2023-08-20T12:55:57;100908.13;;;29.84;52.73
70468;BME280;57934;51.532;7.684;2023-08-20T12:58:24;100910.16;;;29.79;52.61